Latest News: Website changes Read more...
 Looking for the classic swell model? Navbar → Wave Models → Classic Models

BLOCK ISLAND, RI - 154

GPS Time
Latitude
Degrees
Longitude
Degrees
Gap
 
Distance
NM
Speed
Knots
Direction
Degrees
Apr 22, 11:56 40.96879° -71.12701° 30 min 0.01 0.00
Apr 22, 11:26 40.96877° -71.12701° 30 min 0.01 0.00
Apr 22, 10:56 40.96875° -71.12701° 30 min 0.01 0.00
Apr 22, 10:26 40.96872° -71.12701° 30 min 0.01 0.00
323°
Apr 22, 09:56 40.96869° -71.12699° 30 min 0.01 0.01
338°
Apr 22, 09:26 40.96865° -71.12697° 30 min 0.01 0.00
236°
Apr 22, 08:56 40.96866° -71.12695° 30 min 0.01 0.00
210°
Apr 22, 08:26 40.96869° -71.12692° 30 min 0.01 0.00
225°
Apr 22, 07:56 40.96870° -71.12691° 30 min 0.01 0.00
304°
Apr 22, 07:26 40.96869° -71.12688° 30 min 0.01 0.00
270°
Apr 22, 06:56 40.96869° -71.12684° 30 min 0.01 0.00
236°
Apr 22, 06:26 40.96870° -71.12682° 30 min 0.01 0.00
248°
Apr 22, 05:56 40.96872° -71.12678° 30 min 0.01 0.00
222°
Apr 22, 05:26 40.96873° -71.12675° 30 min 0.01 0.00
180°
Apr 22, 04:56 40.96875° -71.12675° 30 min 0.01 0.01
158°
Apr 22, 04:26 40.96879° -71.12678° 30 min 0.01 0.00
143°
Apr 22, 03:56 40.96881° -71.12680° 30 min 0.00 0.00
153°
Apr 22, 03:26 40.96883° -71.12682° 30 min 0.00 0.00
270°
Apr 22, 02:56 40.96883° -71.12680° 30 min 0.00 0.00
124°
Apr 22, 02:26 40.96885° -71.12684° 30 min 0.00 0.00
90°
Apr 22, 01:56 40.96885° -71.12686° 30 min 0.00 0.00
90°
Apr 22, 01:26 40.96885° -71.12688° 30 min 0.00 0.00
124°
Apr 22, 00:56 40.96886° -71.12691° 30 min 0.00 0.00
153°
Apr 22, 00:26 40.96889° -71.12692° 30 min 0.01 0.00
27°
Apr 21, 23:56 40.96885° -71.12695° 30 min 0.01 0.00
66°
Apr 21, 23:26 40.96885° -71.12697° 30 min 0.01 0.00
Apr 21, 22:56 40.96882° -71.12697° 30 min 0.01 0.00
Apr 21, 22:26 40.96879° -71.12697° 30 min 0.01 0.00
Apr 21, 21:56 40.96877° -71.12697° 30 min 0.01 0.00
304°
Apr 21, 21:26 40.96876° -71.12695° 30 min 0.01 0.00
Apr 21, 20:56 40.96876° -71.12695° 30 min 0.01 0.00
Apr 21, 20:26 40.96875° -71.12695° 30 min 0.01 0.00
Apr 21, 19:56 40.96875° -71.12695° 30 min 0.01 0.00
292°
Apr 21, 19:26 40.96873° -71.12691° 30 min 0.01 0.00
294°
Apr 21, 18:56 40.96873° -71.12688° 30 min 0.01 0.00
180°
Apr 21, 18:26 40.96875° -71.12688° 30 min 0.01 0.00
236°
Apr 21, 17:56 40.96876° -71.12686° 30 min 0.01 0.00
323°
Apr 21, 17:26 40.96873° -71.12684° 30 min 0.01 0.01
220°
Apr 21, 16:56 40.96877° -71.12680° 30 min 0.01 0.00
Apr 21, 16:26 40.96877° -71.12680° 30 min 0.01 0.01
90°
Apr 21, 15:56 40.96877° -71.12688° 30 min 0.01 0.00
138°
Apr 21, 15:26 40.96879° -71.12691° 30 min 0.01 0.01
180°
Apr 21, 14:56 40.96883° -71.12691° 30 min 0.00 0.00
159°
Apr 21, 14:26 40.96886° -71.12692° 30 min 0.01 0.00
56°
Apr 21, 13:56 40.96885° -71.12695° 30 min 0.01 0.00
Apr 21, 13:26 40.96885° -71.12695° 30 min 0.01 0.00
90°
Apr 21, 12:56 40.96885° -71.12697° 30 min 0.01 0.00
Apr 21, 12:26 40.96885° -71.12697° 30 min 0.01 0.00
66°
Apr 21, 11:56 40.96885° -71.12699° 30 min 0.01 0.00
Apr 21, 11:26 40.96882° -71.12699° 30 min 0.01 0.01
Apr 21, 10:56 40.96878° -71.12699° 30 min 0.01 0.00
114°
Apr 21, 10:26 40.96879° -71.12701° 30 min 0.01 0.01
342°
Apr 21, 09:56 40.96873° -71.12699° 30 min 0.01 0.00
Apr 21, 09:26 40.96870° -71.12699° 30 min 0.01 0.00
270°
Apr 21, 08:56 40.96870° -71.12697° 30 min 0.01 0.00
323°
Apr 21, 08:26 40.96868° -71.12695° 30 min 0.01 0.00
236°
Apr 21, 07:56 40.96869° -71.12692° 30 min 0.01 0.00
329°
Apr 21, 07:26 40.96867° -71.12691° 30 min 0.01 0.00
270°
Apr 21, 06:56 40.96867° -71.12686° 30 min 0.01 0.01
202°
Apr 21, 06:26 40.96872° -71.12684° 30 min 0.01 0.00
248°
Apr 21, 05:56 40.96873° -71.12680° 30 min 0.01 0.00
241°
Apr 21, 05:26 40.96875° -71.12675° 30 min 0.01 0.00
217°
Apr 21, 04:56 40.96877° -71.12673° 30 min 0.01 0.00
Apr 21, 04:26 40.96877° -71.12673° 30 min 0.01 0.00
138°
Apr 21, 03:56 40.96879° -71.12675° 30 min 0.01 0.00
153°
Apr 21, 03:26 40.96882° -71.12678° 30 min 0.00 0.00
180°
Apr 21, 02:56 40.96885° -71.12678° 30 min 0.00 0.00
105°
Apr 21, 02:26 40.96885° -71.12682° 30 min 0.00 0.00
143°
Apr 21, 01:56 40.96888° -71.12684° 30 min 0.00 0.00
56°
Apr 21, 01:26 40.96886° -71.12686° 30 min 0.00 0.00
143°
Apr 21, 00:56 40.96889° -71.12688° 30 min 0.00 0.00
150°
Apr 21, 00:26 40.96892° -71.12691° 30 min 0.01 0.00
31°
Apr 20, 23:56 40.96890° -71.12692° 30 min 0.01 0.00
56°
Apr 20, 23:26 40.96889° -71.12695° 30 min 0.01 0.00
37°
Apr 20, 22:56 40.96886° -71.12697° 30 min 0.01 0.01
345°
Apr 20, 22:26 40.96880° -71.12695° 30 min 0.01 0.00
90°
Apr 20, 21:56 40.96880° -71.12697° 30 min 0.01 0.00
304°
Apr 20, 21:26 40.96879° -71.12695° 30 min 0.01 0.00
Apr 20, 20:56 40.96876° -71.12695° 30 min 0.01 0.00
Apr 20, 20:26 40.96875° -71.12695° 30 min 0.01 0.00
304°
Apr 20, 19:56 40.96873° -71.12692° 30 min 0.01 0.00
Apr 20, 19:26 40.96872° -71.12692° 30 min 0.01 0.00
270°
Apr 20, 18:56 40.96872° -71.12688° 30 min 0.01 0.00
288°
Apr 20, 18:26 40.96870° -71.12684° 30 min 0.01 0.00
236°
Apr 20, 17:56 40.96872° -71.12682° 30 min 0.01 0.00
236°
Apr 20, 17:26 40.96873° -71.12678° 30 min 0.01 0.00
270°
Apr 20, 16:56 40.96873° -71.12675° 30 min 0.01 0.00
217°
Apr 20, 16:26 40.96876° -71.12673° 30 min 0.01 0.00
180°
Apr 20, 15:56 40.96878° -71.12673° 30 min 0.01 0.00
246°
Apr 20, 15:26 40.96879° -71.12671° 30 min 0.01 0.00
180°
Apr 20, 14:56 40.96881° -71.12671° 30 min 0.01 0.00
180°
Apr 20, 14:26 40.96882° -71.12671° 30 min 0.01 0.00
143°
Apr 20, 13:56 40.96885° -71.12673° 30 min 0.00 0.01
141°
Apr 20, 13:26 40.96889° -71.12678° 30 min 0.00 0.00
90°
Apr 20, 12:56 40.96889° -71.12680° 30 min 0.00 0.00
180°
Apr 20, 12:26 40.96890° -71.12680° 30 min 0.00 0.00
68°
Apr 20, 11:56 40.96889° -71.12684° 30 min 0.00 0.00
56°
Apr 20, 11:26 40.96888° -71.12686° 30 min 0.00 0.00
108°
Apr 20, 10:56 40.96889° -71.12691° 30 min 0.00 0.01
15°
Apr 20, 10:26 40.96885° -71.12692° 30 min 0.01 0.00
Apr 20, 09:56 40.96883° -71.12692° 30 min 0.01 0.01
21°
Apr 20, 09:26 40.96879° -71.12695° 30 min 0.01 0.00
180°
Apr 20, 08:56 40.96880° -71.12695° 30 min 0.01 0.01
326°
Apr 20, 08:26 40.96876° -71.12691° 30 min 0.01 0.01
311°
Apr 20, 07:56 40.96873° -71.12686° 30 min 0.01 0.00
Apr 20, 07:26 40.96872° -71.12686° 30 min 0.01 0.00
270°
Apr 20, 06:56 40.96872° -71.12682° 30 min 0.01 0.00
248°
Apr 20, 06:26 40.96873° -71.12678° 30 min 0.01 0.00
210°
Apr 20, 05:56 40.96876° -71.12675° 30 min 0.01 0.00
270°
Apr 20, 05:26 40.96876° -71.12673° 30 min 0.01 0.00
292°
Apr 20, 04:56 40.96875° -71.12669° 30 min 0.01 0.00
161°
Apr 20, 04:26 40.96878° -71.12671° 30 min 0.01 0.00
Apr 20, 03:56 40.96877° -71.12671° 30 min 0.01 0.00
180°
Apr 20, 03:26 40.96880° -71.12671° 30 min 0.01 0.00
199°
Apr 20, 02:56 40.96883° -71.12669° 30 min 0.01 0.00
90°
Apr 20, 02:26 40.96883° -71.12673° 30 min 0.00 0.00
124°
Apr 20, 01:56 40.96885° -71.12675° 30 min 0.00 0.01
162°
Apr 20, 01:26 40.96890° -71.12678° 30 min 0.00 0.00
180°
Apr 20, 00:56 40.96891° -71.12678° 30 min 0.00 0.00
112°
Apr 20, 00:26 40.96892° -71.12682° 30 min 0.00 0.00
56°
Apr 19, 23:56 40.96891° -71.12684° 30 min 0.00 0.00
78°
Apr 19, 23:26 40.96890° -71.12688° 30 min 0.00 0.00
56°
Apr 19, 22:56 40.96889° -71.12691° 30 min 0.00 0.00
180°
Apr 19, 22:26 40.96890° -71.12691° 30 min 0.00 0.01
14°
Apr 19, 21:56 40.96885° -71.12692° 30 min 0.01 0.00
180°
Apr 19, 21:26 40.96888° -71.12692° 30 min 0.01 0.00
30°
Apr 19, 20:56 40.96885° -71.12695° 30 min 0.01 0.00
333°
Apr 19, 20:26 40.96881° -71.12692° 30 min 0.01 0.00
Apr 19, 19:56 40.96878° -71.12692° 30 min 0.01 0.00
270°
Apr 19, 19:26 40.96878° -71.12691° 30 min 0.01 0.00
323°
Apr 19, 18:56 40.96876° -71.12688° 30 min 0.01 0.00
304°
Apr 19, 18:26 40.96875° -71.12686° 30 min 0.01 0.00
270°
Apr 19, 17:56 40.96875° -71.12684° 30 min 0.01 0.00
217°
Apr 19, 17:26 40.96877° -71.12682° 30 min 0.01 0.00
308°
Apr 19, 16:56 40.96875° -71.12678° 30 min 0.01 0.00
Apr 19, 16:26 40.96873° -71.12678° 30 min 0.01 0.00
252°
Apr 19, 15:56 40.96875° -71.12673° 30 min 0.01 0.00
180°
Apr 19, 15:26 40.96877° -71.12673° 30 min 0.01 0.01
198°
Apr 19, 14:56 40.96882° -71.12671° 30 min 0.01 0.00
Apr 19, 14:26 40.96881° -71.12671° 30 min 0.01 0.01
158°
Apr 19, 13:56 40.96885° -71.12673° 30 min 0.00 0.00
90°
Apr 19, 13:26 40.96885° -71.12678° 30 min 0.00 0.01
159°
Apr 19, 12:56 40.96890° -71.12680° 30 min 0.00 0.00
105°